KGAD/GAD METAR and TAF weather

Enter ICAO airport designator
Station Type Date Time Source
KGAD METAR 2021/09/16 10:56 UTC NOAA

KGAD 161056Z AUTO 07008KT 3SM -RA BR 21/21 A2999 RMK AO2 RAE36B53 SLP157 P0001 T02060206 $


Station Type Date Time Source
KGAD Decoded METAR 2021/09/16 10:56 UTC NOAA

Gadsden, Gadsden Municipal Airport, AL, United States (KGAD) 33-58N 086-05W
Sep 16, 2021 - 06:56 AM EDT / 2021.09.16 1056 UTC
Wind: from the ENE (070 degrees) at 9 MPH (8 KT):0
Visibility: 3 mile(s):0
Weather: light rain; mist
Precipitation last hour: 0.01 inches
Temperature: 69.1 F (20.6 C)
Dew Point: 69.1 F (20.6 C)
Relative Humidity: 100%
Pressure (altimeter): 29.99 in. Hg (1015 hPa)
ob: KGAD 161056Z AUTO 07008KT 3SM -RA BR 21/21 A2999 RMK AO2 RAE36B53 SLP157 P0001 T02060206
cycle: 11

Station Type Date Time Source
KGAD TAF UTC NOAA

Error!

Example: see airport list